الصفحة الرئيسية
METAR-TAF:

METAR-TAF

مطار :

ريسيفي, بيرنامبوكو, البرازيل

دائرة عرض: 08-08S, خط طول: 034-55W, ارتفاع: 19 متر

مراقبة الطقس الحالي

تاريخ ووقت الإصدار 51 دقيقة قبل الساعة 12:00UTC
ريح 11 عقدة من الجنوب الشرقي
درجة الحرارة 29°درجة مئوية
الرطوبة 70%
ضغط 1014 hPa
الرؤية 10 كم أو أكثر
غيوم مفككة على ارتفاع 2300 قدم

METAR: SBRF 201200Z 14011KT 9999 BKN023 29/23 Q1014

زمن: 09:51 (12:51 UTC)

توقعات

تاريخ ووقت الإصدار 2ساعات و 51 دقيقة قبل الساعة 10:00UTC
التوقعات صالحة من20 الساعة 12 UTC إلى 21 الساعة 12 UTC
ريح 9 عقدة من الشرق/الجنوب الشرقي
الرؤية: 7000 متر
غيوم متفرقة على ارتفاع 1000 قدم
غيوم متفرقة على ارتفاع 2000 قدم

TAF: SBRF 201000Z 2012/2112 12009KT 7000 SCT010 SCT020 TX29/2016Z TN25 /2108Z RMK PEU

أرصاد الطقس والتوقعات من أكثر من 4000 مطار (تقارير الطقس للمطار METAR والتنبؤ بالطقس بالمطارTAF).

المحطات المتاحة هي النقط الصفراء والحمراء على الخريطة.

حرك المؤشر فوق النقطة لمعرفة اسم المحطة.

ثم انقر لمعرفة أرصاد وتوقعات الطقس.

لتغيير الخارطة: اضغط على الأزرار الخضراء مع رمز الصليب الأسود للتكبير. على الزر الأخضر مع شرطة للتصغير، أو على الأسهم الخضراء للخرائط المجاورة.


METAR-TAF: